Time;durP1;ratioP1;P1;durP2;ratioP2;P2;SDS_P1;SDS_P2;PMS_P1;PMS_P2;Temp;Humidity;BMP_temperature;BMP_pressure;BME280_temperature;BME280_humidity;BME280_pressure;Samples;Min_cycle;Max_cycle;Signal;HPM_P1;HPM_P2
2023/01/26 00:00:54;;;;;;;2.33;1.77;;;1.00;99.90;;;;;;5128230;27;20232;-70
2023/01/26 00:03:21;;;;;;;2.63;1.40;;;1.00;99.90;;;;;;5128507;27;20193;-70
2023/01/26 00:05:48;;;;;;;2.88;2.67;;;1.00;99.90;;;;;;5127845;27;20294;-70
2023/01/26 00:08:15;;;;;;;2.13;1.92;;;1.00;99.90;;;;;;5127093;27;20201;-70
2023/01/26 00:10:49;;;;;;;4.78;1.98;;;1.00;99.90;;;;;;5127704;28;21410;-70
2023/01/26 00:13:16;;;;;;;1.77;1.75;;;1.10;99.90;;;;;;5118590;28;20189;-70
2023/01/26 00:15:43;;;;;;;1.02;1.02;;;1.10;99.90;;;;;;5107686;28;20220;-70
2023/01/26 00:18:11;;;;;;;2.20;1.38;;;1.10;99.90;;;;;;5121094;28;20723;-71
2023/01/26 00:20:38;;;;;;;2.35;2.15;;;1.10;99.90;;;;;;5111365;28;20313;-70
2023/01/26 00:23:05;;;;;;;3.92;2.00;;;1.10;99.90;;;;;;5127371;28;20197;-71
2023/01/26 00:25:32;;;;;;;4.35;3.20;;;1.20;99.90;;;;;;5127641;28;20221;-70
2023/01/26 00:27:58;;;;;;;13.07;4.60;;;1.10;99.90;;;;;;5126525;28;20193;-71
2023/01/26 00:30:25;;;;;;;0.80;0.80;;;1.10;99.90;;;;;;5125710;28;20229;-71
2023/01/26 00:32:52;;;;;;;2.80;1.30;;;1.20;99.90;;;;;;5127726;28;20196;-70
2023/01/26 00:35:20;;;;;;;2.85;1.75;;;1.40;99.90;;;;;;5126873;28;20199;-70
2023/01/26 00:37:47;;;;;;;3.90;1.92;;;1.40;99.90;;;;;;5116115;28;20225;-71
2023/01/26 00:40:14;;;;;;;1.35;1.23;;;1.20;99.90;;;;;;5122218;28;20189;-72
2023/01/26 00:42:41;;;;;;;2.83;1.45;;;1.10;99.90;;;;;;5112536;28;20204;-70
2023/01/26 00:45:08;;;;;;;4.50;2.30;;;1.10;99.90;;;;;;5118503;28;20524;-70
2023/01/26 00:47:35;;;;;;;2.45;1.35;;;1.10;99.90;;;;;;5127682;28;20205;-71
2023/01/26 00:50:02;;;;;;;4.00;2.38;;;0.90;99.90;;;;;;5126493;28;20225;-71
2023/01/26 00:52:30;;;;;;;1.13;1.02;;;1.00;99.90;;;;;;5127802;28;20224;-70
2023/01/26 00:54:58;;;;;;;1.90;1.50;;;1.00;99.90;;;;;;5129424;27;20418;-70
2023/01/26 00:57:24;;;;;;;4.57;1.80;;;1.00;99.90;;;;;;5131887;27;20304;-69
2023/01/26 00:59:51;;;;;;;3.05;1.42;;;0.80;99.90;;;;;;5130338;27;20201;-69
2023/01/26 01:02:18;;;;;;;2.05;1.25;;;0.70;99.90;;;;;;5131024;27;20217;-71
2023/01/26 01:04:45;;;;;;;5.43;4.15;;;0.70;99.90;;;;;;5131254;27;21027;-72
2023/01/26 01:07:11;;;;;;;3.15;2.90;;;0.80;99.90;;;;;;5131828;27;20225;-70
2023/01/26 01:09:40;;;;;;;6.95;2.80;;;0.90;99.90;;;;;;5130936;27;20224;-69
2023/01/26 01:12:06;;;;;;;3.22;3.03;;;1.00;99.90;;;;;;5131223;27;20232;-71
2023/01/26 01:14:33;;;;;;;1.50;1.38;;;1.00;99.90;;;;;;5115066;27;20193;-70
2023/01/26 01:17:00;;;;;;;2.60;2.38;;;1.00;99.90;;;;;;5130638;27;20224;-70
2023/01/26 01:19:27;;;;;;;3.20;2.88;;;1.00;99.90;;;;;;5130862;27;20201;-71
2023/01/26 01:21:54;;;;;;;2.80;2.63;;;1.00;99.90;;;;;;5131246;27;20336;-71
2023/01/26 01:24:20;;;;;;;4.90;2.80;;;1.00;99.90;;;;;;5130865;27;20219;-70
2023/01/26 01:26:49;;;;;;;2.35;2.15;;;0.90;99.90;;;;;;5130227;27;20235;-70
2023/01/26 01:29:15;;;;;;;2.28;1.95;;;0.90;99.90;;;;;;5130759;27;20200;-70
2023/01/26 01:31:42;;;;;;;1.55;1.45;;;0.90;99.90;;;;;;5130416;27;20247;-70
2023/01/26 01:34:09;;;;;;;1.67;1.55;;;0.90;99.90;;;;;;5130984;27;20202;-71
2023/01/26 01:36:36;;;;;;;8.05;1.63;;;1.00;99.90;;;;;;5129760;27;20225;-70
2023/01/26 01:39:03;;;;;;;0.70;0.70;;;0.80;99.90;;;;;;5124195;27;20201;-70
2023/01/26 01:41:30;;;;;;;1.65;1.52;;;0.70;99.90;;;;;;5130039;27;20785;-70
2023/01/26 01:44:13;;;;;;;1.45;1.20;;;0.80;99.90;;;;;;5130402;27;20394;-71
2023/01/26 01:46:45;;;;;;;1.73;1.73;;;0.90;99.90;;;;;;5112260;27;20232;-70
2023/01/26 01:49:18;;;;;;;4.50;3.30;;;0.80;99.90;;;;;;5130141;27;20664;-70
2023/01/26 01:51:50;;;;;;;3.08;2.55;;;0.80;99.90;;;;;;5129992;27;20225;-69
2023/01/26 01:54:22;;;;;;;1.75;1.58;;;0.80;99.90;;;;;;5130370;27;20201;-70
2023/01/26 01:56:55;;;;;;;2.25;1.42;;;0.90;99.90;;;;;;5124241;27;20214;-70
2023/01/26 01:59:24;;;;;;;1.38;1.33;;;0.90;99.90;;;;;;5109538;28;20202;-70
2023/01/26 02:01:52;;;;;;;5.50;2.80;;;0.90;99.90;;;;;;5131676;27;20220;-71
2023/01/26 02:04:21;;;;;;;5.90;2.47;;;0.90;99.90;;;;;;5117584;27;20597;-71
2023/01/26 02:06:50;;;;;;;2.83;2.63;;;1.00;99.90;;;;;;5110191;27;20244;-70
2023/01/26 02:12:16;;;;;;;4.97;1.55;;;0.90;99.90;;;;;;5104562;27;20232;-70
2023/01/26 02:14:45;;;;;;;5.75;1.85;;;0.90;99.90;;;;;;5130375;27;20205;-70
2023/01/26 02:17:14;;;;;;;0.55;0.55;;;1.70;99.90;;;;;;5129462;27;20225;-69
2023/01/26 02:19:51;;;;;;;3.88;2.28;;;0.90;99.90;;;;;;5129419;27;20262;-70
2023/01/26 02:22:32;;;;;;;5.60;2.13;;;1.50;99.90;;;;;;5129749;27;20293;-71
2023/01/26 02:25:06;;;;;;;1.48;1.45;;;0.80;99.90;;;;;;5112940;27;20209;-71
2023/01/26 02:27:36;;;;;;;3.08;1.85;;;0.90;99.90;;;;;;5112019;27;20617;-71
2023/01/26 02:30:05;;;;;;;3.60;1.95;;;0.90;99.90;;;;;;5109602;27;20217;-70
2023/01/26 02:32:32;;;;;;;5.03;1.45;;;1.00;99.90;;;;;;5122688;27;20305;-71
2023/01/26 02:34:59;;;;;;;6.13;2.60;;;1.00;99.90;;;;;;5114530;27;20193;-70
2023/01/26 02:37:26;;;;;;;2.75;2.08;;;1.00;99.90;;;;;;5117750;27;20303;-71
2023/01/26 02:39:59;;;;;;;2.85;2.65;;;1.10;99.90;;;;;;5125891;27;20197;-70
2023/01/26 02:42:38;;;;;;;3.65;3.13;;;1.20;99.90;;;;;;5113110;27;20217;-71
2023/01/26 02:45:09;;;;;;;3.10;2.88;;;1.20;99.90;;;;;;5129664;27;20627;-70
2023/01/26 02:47:36;;;;;;;1.38;1.27;;;1.10;99.90;;;;;;5118763;27;20686;-70
2023/01/26 02:50:03;;;;;;;3.50;2.20;;;1.10;99.90;;;;;;5108218;27;20271;-71
2023/01/26 02:52:30;;;;;;;1.38;1.38;;;1.00;99.90;;;;;;5109480;28;20285;-70
2023/01/26 02:57:44;;;;;;;3.42;1.52;;;1.10;99.90;;;;;;5121203;27;20200;-71
2023/01/26 03:00:18;;;;;;;2.65;2.42;;;1.10;99.90;;;;;;5127917;27;20280;-69
2023/01/26 03:02:47;;;;;;;1.80;1.60;;;1.00;99.90;;;;;;5127717;27;20196;-72
2023/01/26 03:05:14;;;;;;;1.05;1.00;;;1.10;99.90;;;;;;5128670;27;20251;-70
2023/01/26 03:07:41;;;;;;;7.20;2.45;;;1.10;99.90;;;;;;5122141;27;20279;-70
2023/01/26 03:10:09;;;;;;;2.25;1.65;;;1.10;99.90;;;;;;5108220;28;20210;-71
2023/01/26 03:12:36;;;;;;;4.68;2.38;;;1.10;99.90;;;;;;5108891;28;20186;-70
2023/01/26 03:17:50;;;;;;;3.75;3.45;;;1.00;99.90;;;;;;5119763;27;20232;-71
2023/01/26 03:28:32;;;;;;;3.35;0.98;;;0.90;99.90;;;;;;5109141;28;20286;-70
2023/01/26 03:31:00;;;;;;;6.60;2.50;;;0.80;99.90;;;;;;5108123;28;20225;-69
2023/01/26 03:33:29;;;;;;;1.63;1.35;;;0.70;99.90;;;;;;5109248;27;20206;-70
2023/01/26 03:35:56;;;;;;;1.65;0.93;;;0.70;99.90;;;;;;5108228;28;20236;-70
2023/01/26 03:38:23;;;;;;;1.80;1.70;;;0.70;99.90;;;;;;5122971;27;20205;-70
2023/01/26 03:57:24;;;;;;;1.02;0.60;;;0.80;99.90;;;;;;5127915;27;20220;-71
2023/01/26 03:59:52;;;;;;;4.20;1.85;;;0.90;99.90;;;;;;5127963;27;20197;-70
2023/01/26 04:10:36;;;;;;;0.35;0.35;;;0.70;99.90;;;;;;5128241;28;20243;-71
2023/01/26 04:21:28;;;;;;;4.70;1.65;;;0.90;99.90;;;;;;5127593;28;20213;-70
2023/01/26 04:23:57;;;;;;;5.68;1.70;;;0.90;99.90;;;;;;5128319;28;20554;-70
2023/01/26 04:26:25;;;;;;;2.45;1.30;;;0.90;99.90;;;;;;5107342;28;20675;-71
2023/01/26 04:28:51;;;;;;;1.00;0.70;;;0.90;99.90;;;;;;5127918;27;20548;-70
2023/01/26 04:31:18;;;;;;;1.33;1.33;;;0.90;99.90;;;;;;5132245;27;20354;-70
2023/01/26 04:33:45;;;;;;;2.22;1.63;;;0.80;99.90;;;;;;5113559;27;20640;-70
2023/01/26 04:36:12;;;;;;;2.97;2.78;;;0.80;99.90;;;;;;5132045;27;20241;-70
2023/01/26 04:38:40;;;;;;;0.95;0.95;;;0.80;99.90;;;;;;5114972;27;20216;-70
2023/01/26 04:41:07;;;;;;;2.70;1.48;;;0.90;99.90;;;;;;5131183;27;20476;-70
2023/01/26 04:43:34;;;;;;;1.02;1.02;;;0.80;99.90;;;;;;5132048;27;20284;-70
2023/01/26 04:46:02;;;;;;;1.17;1.08;;;0.80;99.90;;;;;;5130553;27;20332;-70
2023/01/26 04:48:29;;;;;;;1.10;0.93;;;0.70;99.90;;;;;;5131632;27;20281;-69
2023/01/26 04:50:57;;;;;;;2.47;1.45;;;0.60;99.90;;;;;;5131603;27;20233;-68
2023/01/26 04:53:25;;;;;;;1.30;1.20;;;0.50;99.90;;;;;;5131283;27;20250;-70
2023/01/26 04:55:53;;;;;;;0.85;0.77;;;0.40;99.90;;;;;;5131058;27;20213;-70
2023/01/26 04:58:20;;;;;;;1.05;0.52;;;0.40;99.90;;;;;;5131353;27;20197;-70
2023/01/26 05:00:51;;;;;;;1.88;1.42;;;0.50;99.90;;;;;;5131077;27;20706;-70
2023/01/26 05:03:17;;;;;;;0.95;0.95;;;0.60;99.90;;;;;;5131599;27;20199;-68
2023/01/26 05:05:44;;;;;;;0.40;0.40;;;0.70;99.90;;;;;;5131133;27;20232;-70
2023/01/26 05:08:11;;;;;;;0.65;0.65;;;0.50;99.90;;;;;;5130734;27;20557;-70
2023/01/26 05:10:38;;;;;;;0.93;0.93;;;0.50;99.90;;;;;;5131311;27;20225;-70
2023/01/26 05:13:06;;;;;;;0.63;0.63;;;0.50;99.90;;;;;;5131894;27;20208;-70
2023/01/26 05:15:33;;;;;;;5.38;0.93;;;0.40;99.90;;;;;;5131229;27;20224;-70
2023/01/26 05:18:00;;;;;;;1.08;1.08;;;0.40;99.90;;;;;;5130973;27;20201;-70
2023/01/26 05:20:26;;;;;;;1.08;0.65;;;0.50;99.90;;;;;;5130496;27;20308;-70
2023/01/26 05:22:54;;;;;;;1.73;1.25;;;0.60;99.90;;;;;;5110442;28;20292;-70
2023/01/26 05:25:21;;;;;;;1.70;1.23;;;0.60;99.90;;;;;;5105718;27;20217;-70
2023/01/26 05:27:48;;;;;;;1.92;1.83;;;0.60;99.90;;;;;;5130972;27;20198;-70
2023/01/26 05:30:17;;;;;;;1.30;1.25;;;0.60;99.90;;;;;;5130150;27;20197;-70
2023/01/26 05:32:43;;;;;;;1.55;1.10;;;0.60;99.90;;;;;;5130859;27;20315;-70
2023/01/26 05:35:10;;;;;;;2.38;1.27;;;0.70;99.90;;;;;;5130605;27;20200;-70
2023/01/26 05:37:37;;;;;;;2.78;2.03;;;0.70;99.90;;;;;;5123991;27;20687;-70
2023/01/26 05:40:05;;;;;;;0.38;0.38;;;0.60;99.90;;;;;;5122851;27;20200;-70
2023/01/26 05:42:32;;;;;;;2.55;2.03;;;0.50;99.90;;;;;;5130937;27;20207;-69
2023/01/26 05:44:59;;;;;;;0.93;0.73;;;0.50;99.90;;;;;;5130585;27;20189;-70
2023/01/26 05:47:27;;;;;;;1.13;1.13;;;0.40;99.90;;;;;;5130637;27;20225;-69
2023/01/26 05:49:54;;;;;;;0.30;0.30;;;0.30;99.90;;;;;;5129646;27;20197;-68
2023/01/26 05:52:22;;;;;;;2.08;1.88;;;0.40;99.90;;;;;;5130638;27;20332;-69
2023/01/26 05:54:49;;;;;;;3.03;2.92;;;0.30;99.90;;;;;;5130630;27;20193;-70
2023/01/26 05:57:16;;;;;;;1.58;1.25;;;0.40;99.90;;;;;;5130214;27;20221;-68
2023/01/26 05:59:43;;;;;;;1.58;0.82;;;0.50;99.90;;;;;;5129926;27;20185;-69
2023/01/26 06:02:11;;;;;;;0.70;0.70;;;0.50;99.90;;;;;;5129947;27;20221;-69
2023/01/26 06:04:40;;;;;;;0.65;0.65;;;0.50;99.90;;;;;;5130033;27;20197;-69
2023/01/26 06:07:06;;;;;;;0.95;0.95;;;0.50;99.90;;;;;;5130304;27;20226;-69
2023/01/26 06:09:33;;;;;;;4.72;1.23;;;0.40;99.90;;;;;;5129438;27;20185;-69
2023/01/26 06:12:00;;;;;;;1.60;1.50;;;0.30;99.90;;;;;;5130586;27;20225;-69
2023/01/26 06:14:27;;;;;;;3.22;3.13;;;0.40;99.90;;;;;;5130308;27;20200;-69
2023/01/26 06:16:55;;;;;;;2.00;1.90;;;0.50;99.90;;;;;;5129304;27;20217;-70
2023/01/26 06:19:22;;;;;;;1.40;1.20;;;0.40;99.90;;;;;;5129693;27;20189;-70
2023/01/26 06:21:52;;;;;;;1.50;1.05;;;0.30;99.90;;;;;;5129639;27;20273;-68
2023/01/26 06:24:19;;;;;;;1.88;0.98;;;0.30;99.90;;;;;;5120312;27;20305;-72
2023/01/26 06:26:48;;;;;;;0.68;0.68;;;0.30;99.90;;;;;;5113569;27;20217;-69
2023/01/26 06:29:14;;;;;;;1.98;1.88;;;0.30;99.90;;;;;;5118888;27;20193;-69
2023/01/26 06:31:41;;;;;;;0.88;0.88;;;0.40;99.90;;;;;;5111909;27;20222;-69
2023/01/26 06:34:09;;;;;;;2.40;1.88;;;0.10;99.90;;;;;;5114217;27;20550;-69
2023/01/26 06:36:36;;;;;;;0.40;0.40;;;0.20;99.90;;;;;;5108810;27;20418;-70
2023/01/26 06:39:04;;;;;;;3.70;2.70;;;0.10;99.90;;;;;;5117035;27;20202;-69
2023/01/26 06:41:31;;;;;;;0.30;0.30;;;0.00;99.90;;;;;;5128999;27;20232;-69
2023/01/26 06:43:58;;;;;;;1.50;1.40;;;0.00;99.90;;;;;;5114596;27;20668;-71
2023/01/26 06:46:25;;;;;;;3.42;0.88;;;0.00;99.90;;;;;;5128207;27;20718;-69
2023/01/26 06:48:52;;;;;;;0.88;0.88;;;0.00;99.90;;;;;;5128483;27;20193;-69
2023/01/26 06:51:58;;;;;;;0.52;0.52;;;0.10;99.90;;;;;;5119605;27;20225;-70
2023/01/26 06:54:26;;;;;;;1.60;0.57;;;0.00;99.90;;;;;;5126980;27;20197;-69
2023/01/26 06:56:53;;;;;;;3.65;2.13;;;0.00;99.90;;;;;;5128614;27;20213;-69
2023/01/26 06:59:20;;;;;;;2.15;1.35;;;0.10;99.90;;;;;;5107637;27;20194;-69
2023/01/26 07:01:48;;;;;;;1.05;1.05;;;0.30;99.90;;;;;;5111359;27;20647;-71
2023/01/26 07:04:17;;;;;;;1.00;1.00;;;0.30;99.90;;;;;;5112108;27;20205;-70
2023/01/26 07:06:44;;;;;;;0.70;0.70;;;0.40;99.90;;;;;;5128180;27;20305;-69
2023/01/26 07:09:11;;;;;;;4.63;1.67;;;0.30;99.90;;;;;;5127191;27;20245;-70
2023/01/26 07:11:39;;;;;;;0.75;0.75;;;0.40;99.90;;;;;;5123672;27;20242;-69
2023/01/26 07:14:06;;;;;;;1.15;1.15;;;0.40;99.90;;;;;;5124754;27;20259;-70
2023/01/26 07:16:33;;;;;;;0.88;0.88;;;0.40;99.90;;;;;;5110941;27;20216;-70
2023/01/26 07:19:00;;;;;;;2.65;1.05;;;0.30;99.90;;;;;;5127714;27;20201;-69
2023/01/26 07:21:27;;;;;;;0.88;0.88;;;0.20;99.90;;;;;;5127783;27;20217;-68
2023/01/26 07:23:55;;;;;;;1.50;1.33;;;0.20;99.90;;;;;;5127616;27;20196;-69
2023/01/26 07:26:21;;;;;;;0.82;0.73;;;0.20;99.90;;;;;;5127865;27;20225;-70
2023/01/26 07:28:49;;;;;;;2.33;0.88;;;0.20;99.90;;;;;;5127396;27;20296;-69
2023/01/26 07:31:16;;;;;;;1.25;1.15;;;0.00;99.90;;;;;;5121983;27;20232;-69
2023/01/26 07:33:43;;;;;;;1.85;0.85;;;0.10;99.90;;;;;;5113839;27;20194;-70
2023/01/26 07:36:10;;;;;;;2.63;2.42;;;-0.20;99.90;;;;;;5123478;27;20707;-70
2023/01/26 07:38:37;;;;;;;0.50;0.50;;;-0.10;99.90;;;;;;5125512;27;20714;-70
2023/01/26 07:41:09;;;;;;;1.10;1.02;;;-0.10;99.90;;;;;;5115684;27;20244;-70
2023/01/26 07:43:37;;;;;;;2.17;1.27;;;-0.10;99.90;;;;;;5124275;27;20204;-70
2023/01/26 07:46:06;;;;;;;0.75;0.70;;;-0.10;99.90;;;;;;5107843;27;20793;-70
2023/01/26 07:48:33;;;;;;;0.82;0.82;;;-0.20;99.90;;;;;;5126821;27;20199;-70
2023/01/26 07:51:03;;;;;;;0.63;0.63;;;-0.10;99.90;;;;;;5127995;27;20835;-70
2023/01/26 07:53:32;;;;;;;1.00;0.73;;;0.00;99.90;;;;;;5125184;27;20312;-70
2023/01/26 07:56:07;;;;;;;1.23;1.13;;;-0.20;99.90;;;;;;5115545;27;20221;-70
2023/01/26 07:58:35;;;;;;;0.82;0.82;;;-0.10;99.90;;;;;;5127201;27;20575;-69
2023/01/26 08:01:08;;;;;;;0.45;0.45;;;-0.10;99.90;;;;;;5117142;27;20308;-71
2023/01/26 08:03:35;;;;;;;1.25;1.15;;;0.10;99.90;;;;;;5123067;27;20201;-69
2023/01/26 08:06:02;;;;;;;5.70;1.90;;;1.60;99.90;;;;;;5127153;27;20718;-70
2023/01/26 08:08:29;;;;;;;0.50;0.50;;;0.00;99.90;;;;;;5125353;27;20217;-70
2023/01/26 08:10:57;;;;;;;10.98;1.58;;;0.00;99.90;;;;;;5108971;28;20230;-70
2023/01/26 08:13:24;;;;;;;0.73;0.73;;;0.00;99.90;;;;;;5119580;28;20247;-70
2023/01/26 08:15:51;;;;;;;2.90;1.60;;;-0.10;99.90;;;;;;5126125;28;20225;-70
2023/01/26 08:18:19;;;;;;;3.70;1.30;;;-0.10;99.90;;;;;;5115564;28;20281;-70
2023/01/26 08:20:50;;;;;;;2.00;1.90;;;0.00;99.90;;;;;;5122393;28;20229;-70
2023/01/26 08:23:17;;;;;;;5.22;1.92;;;-0.10;99.90;;;;;;5110565;28;20193;-69
2023/01/26 08:25:44;;;;;;;0.82;0.52;;;0.00;99.90;;;;;;5127454;28;20213;-69
2023/01/26 08:28:11;;;;;;;0.80;0.80;;;0.00;99.90;;;;;;5125794;28;20207;-71
2023/01/26 08:30:38;;;;;;;2.72;1.27;;;-0.10;99.90;;;;;;5126714;28;20239;-69
2023/01/26 08:33:05;;;;;;;0.50;0.50;;;-0.10;99.90;;;;;;5125295;28;20229;-70
2023/01/26 08:35:34;;;;;;;0.75;0.60;;;-0.10;99.90;;;;;;5126298;28;20414;-70
2023/01/26 08:38:00;;;;;;;0.95;0.95;;;0.00;99.90;;;;;;5123438;28;20205;-69
2023/01/26 08:40:28;;;;;;;0.75;0.75;;;0.00;99.90;;;;;;5123031;28;20219;-69
2023/01/26 08:42:55;;;;;;;0.80;0.80;;;;;;;;;;5119977;28;20201;-70
2023/01/26 08:45:22;;;;;;;0.63;0.63;;;0.00;99.90;;;;;;5126856;28;20561;-70
2023/01/26 08:47:49;;;;;;;0.70;0.70;;;0.10;99.90;;;;;;5127268;28;20276;-70
2023/01/26 08:50:16;;;;;;;0.93;0.88;;;0.00;99.90;;;;;;5126195;28;20204;-68
2023/01/26 08:52:45;;;;;;;5.90;2.25;;;0.10;99.90;;;;;;5120670;28;20217;-70
2023/01/26 08:55:12;;;;;;;3.00;1.00;;;0.10;99.90;;;;;;5124650;28;20280;-70
2023/01/26 08:57:39;;;;;;;3.28;2.97;;;0.20;99.90;;;;;;5125901;28;20243;-70
2023/01/26 09:00:07;;;;;;;4.10;1.27;;;0.20;99.90;;;;;;5109247;28;20206;-69
2023/01/26 09:02:34;;;;;;;10.30;1.52;;;2.10;99.90;;;;;;5109756;28;20355;-70
2023/01/26 09:05:01;;;;;;;0.82;0.82;;;0.10;99.90;;;;;;5126610;28;20198;-70
2023/01/26 09:07:28;;;;;;;0.50;0.50;;;-0.10;99.90;;;;;;5126860;28;20217;-70
2023/01/26 09:09:56;;;;;;;1.98;1.80;;;-0.20;99.90;;;;;;5125376;28;20722;-71
2023/01/26 09:12:23;;;;;;;1.58;1.20;;;-0.20;99.90;;;;;;5126173;28;20221;-70
2023/01/26 09:14:49;;;;;;;0.65;0.60;;;-0.20;99.90;;;;;;5127322;27;20253;-69
2023/01/26 09:17:16;;;;;;;1.00;1.00;;;-0.10;99.90;;;;;;5112984;27;20221;-70
2023/01/26 09:19:43;;;;;;;0.88;0.88;;;0.00;99.90;;;;;;5117699;27;20280;-69
2023/01/26 09:22:10;;;;;;;0.80;0.80;;;0.10;99.90;;;;;;5130100;27;20320;-70
2023/01/26 09:24:36;;;;;;;1.10;1.10;;;0.10;99.90;;;;;;5110657;27;20288;-70
2023/01/26 09:27:05;;;;;;;1.40;1.33;;;0.20;99.90;;;;;;5126574;27;20223;-70
2023/01/26 09:29:31;;;;;;;1.13;0.80;;;0.10;99.90;;;;;;5130421;27;20281;-70
2023/01/26 09:31:58;;;;;;;2.70;1.33;;;0.10;99.90;;;;;;5130101;27;20221;-70
2023/01/26 09:34:25;;;;;;;0.40;0.40;;;0.00;99.90;;;;;;5124289;27;20678;-70
2023/01/26 09:36:52;;;;;;;0.55;0.55;;;0.40;99.90;;;;;;5123638;27;20229;-69
2023/01/26 09:39:19;;;;;;;1.02;0.70;;;-0.20;99.90;;;;;;5126386;27;20205;-70
2023/01/26 09:42:24;;;;;;;0.95;0.85;;;-0.10;99.90;;;;;;5124943;27;20228;-71
2023/01/26 09:45:02;;;;;;;1.33;0.77;;;-0.20;99.90;;;;;;5119355;27;20280;-69
2023/01/26 09:47:35;;;;;;;3.00;0.93;;;0.60;99.90;;;;;;5129944;27;20994;-70
2023/01/26 09:50:08;;;;;;;0.40;0.40;;;-0.20;99.90;;;;;;5129287;27;20249;-70
2023/01/26 09:52:39;;;;;;;0.60;0.60;;;-0.20;99.90;;;;;;5123419;27;20210;-70
2023/01/26 09:55:12;;;;;;;1.83;1.10;;;-0.10;99.90;;;;;;5108979;27;20300;-70
2023/01/26 09:57:47;;;;;;;0.98;0.98;;;-0.10;99.90;;;;;;5129799;27;20197;-70
2023/01/26 10:00:21;;;;;;;2.05;1.85;;;-0.20;99.90;;;;;;5108988;27;20639;-70
2023/01/26 10:02:59;;;;;;;2.28;1.58;;;-0.10;99.90;;;;;;5118475;27;20284;-70
2023/01/26 10:05:33;;;;;;;1.92;1.75;;;-0.20;99.90;;;;;;5115528;27;20653;-70
2023/01/26 10:08:00;;;;;;;0.85;0.85;;;-0.40;99.90;;;;;;5119006;27;20567;-69
2023/01/26 10:10:30;;;;;;;6.00;1.10;;;-0.40;99.90;;;;;;5127346;27;20228;-70
2023/01/26 10:13:00;;;;;;;1.08;1.08;;;-0.30;99.90;;;;;;5129062;27;20312;-69
2023/01/26 10:15:31;;;;;;;5.20;1.63;;;-0.30;99.90;;;;;;5128051;27;20322;-69
2023/01/26 10:18:02;;;;;;;3.55;1.40;;;-0.40;99.90;;;;;;5123467;27;20222;-69
2023/01/26 10:20:32;;;;;;;0.40;0.40;;;-0.50;99.90;;;;;;5110472;27;20218;-70
2023/01/26 10:23:04;;;;;;;0.95;0.80;;;-0.60;99.90;;;;;;5115121;27;20208;-70
2023/01/26 10:25:39;;;;;;;1.40;1.20;;;-0.50;99.90;;;;;;5114483;27;20222;-69
2023/01/26 10:28:14;;;;;;;1.40;1.40;;;-0.40;99.90;;;;;;5124586;27;20698;-70
2023/01/26 10:30:42;;;;;;;1.77;1.67;;;-0.40;99.90;;;;;;5129360;27;20305;-69
2023/01/26 10:33:16;;;;;;;0.50;0.50;;;-0.50;99.90;;;;;;5128862;27;20224;-69
2023/01/26 10:35:43;;;;;;;0.45;0.45;;;-0.30;99.90;;;;;;5112458;27;20222;-70
2023/01/26 10:38:43;;;;;;;0.57;0.55;;;-0.40;99.90;;;;;;5121765;27;20219;-69
2023/01/26 10:41:24;;;;;;;2.47;1.42;;;-0.30;99.90;;;;;;5038471;28;20327;-71
2023/01/26 10:43:55;;;;;;;1.23;1.23;;;-0.10;99.90;;;;;;5042410;28;20203;-68
2023/01/26 10:46:31;;;;;;;4.72;1.15;;;-0.20;99.90;;;;;;5091488;27;20719;-71
2023/01/26 10:48:59;;;;;;;32.70;2.65;;;-0.20;99.90;;;;;;5118113;27;20192;-70
2023/01/26 10:51:29;;;;;;;0.52;0.52;;;-0.10;99.90;;;;;;5129329;27;20321;-70
2023/01/26 10:54:20;;;;;;;2.47;0.88;;;0.00;99.90;;;;;;5128332;27;20221;-71
2023/01/26 10:56:50;;;;;;;2.35;0.88;;;-0.10;99.90;;;;;;5128763;27;20702;-70
2023/01/26 10:59:27;;;;;;;2.15;1.15;;;-0.20;99.90;;;;;;5127538;27;20185;-68
2023/01/26 11:01:56;;;;;;;3.33;2.38;;;-0.20;99.90;;;;;;5127183;27;20315;-70
2023/01/26 11:04:24;;;;;;;0.40;0.40;;;-0.20;99.90;;;;;;5114740;27;20211;-70
2023/01/26 11:06:51;;;;;;;1.85;1.75;;;-0.20;99.90;;;;;;5116471;27;20750;-70
2023/01/26 11:09:24;;;;;;;0.75;0.75;;;-0.30;99.90;;;;;;5127605;27;20189;-70
2023/01/26 11:11:57;;;;;;;1.30;1.00;;;-0.30;99.90;;;;;;5129018;27;20228;-70
2023/01/26 11:14:25;;;;;;;0.65;0.65;;;-0.20;99.90;;;;;;5128463;27;20229;-70
2023/01/26 11:16:58;;;;;;;0.93;0.93;;;-0.10;99.90;;;;;;5128168;27;20225;-69
2023/01/26 11:19:50;;;;;;;2.85;2.10;;;-0.30;99.90;;;;;;5128104;27;20193;-70
2023/01/26 11:22:23;;;;;;;2.80;1.10;;;-0.20;99.90;;;;;;5128589;27;20221;-68
2023/01/26 11:25:00;;;;;;;2.35;1.30;;;-0.30;99.90;;;;;;5128659;27;20209;-70
2023/01/26 11:27:39;;;;;;;1.80;1.48;;;-0.20;99.90;;;;;;5126219;27;20228;-69
2023/01/26 11:30:44;;;;;;;0.57;0.57;;;-0.10;99.90;;;;;;5127899;27;20197;-70
2023/01/26 11:33:20;;;;;;;3.60;1.83;;;-0.10;99.90;;;;;;5128484;27;20220;-69
2023/01/26 11:35:54;;;;;;;0.75;0.52;;;-0.20;99.90;;;;;;5127206;27;20223;-69
2023/01/26 11:38:36;;;;;;;1.25;1.25;;;-0.10;99.90;;;;;;5122408;27;20197;-69
2023/01/26 11:41:19;;;;;;;1.95;1.38;;;-0.30;99.90;;;;;;5107749;28;20229;-70
2023/01/26 11:44:06;;;;;;;2.17;1.98;;;-0.20;99.90;;;;;;5125344;27;20762;-69
2023/01/26 11:46:49;;;;;;;0.57;0.52;;;-0.10;99.90;;;;;;5128189;27;20225;-70
2023/01/26 11:49:28;;;;;;;0.75;0.75;;;-0.10;99.90;;;;;;5127424;27;20651;-70
2023/01/26 11:52:05;;;;;;;0.60;0.60;;;-0.10;99.90;;;;;;5127368;27;20229;-69
2023/01/26 11:54:50;;;;;;;0.88;0.88;;;-0.10;99.90;;;;;;5127836;27;20221;-70
2023/01/26 11:57:26;;;;;;;0.98;0.98;;;0.00;99.90;;;;;;5115906;27;20225;-70
2023/01/26 11:59:57;;;;;;;0.95;0.95;;;-0.10;99.90;;;;;;5114248;27;20671;-70
2023/01/26 12:02:30;;;;;;;0.45;0.45;;;-0.10;99.90;;;;;;5122008;27;20224;-70
2023/01/26 12:05:02;;;;;;;1.30;1.20;;;0.00;99.90;;;;;;5106752;28;20213;-70
2023/01/26 12:07:32;;;;;;;1.58;1.58;;;-0.10;99.90;;;;;;5112375;27;20741;-70
2023/01/26 12:10:02;;;;;;;0.93;0.60;;;0.00;99.90;;;;;;5127765;27;20285;-70
2023/01/26 12:12:36;;;;;;;1.27;1.17;;;0.10;99.90;;;;;;5127811;27;20239;-70
2023/01/26 12:15:09;;;;;;;1.38;1.35;;;0.10;99.90;;;;;;5128166;27;20205;-70
2023/01/26 12:17:49;;;;;;;4.85;1.05;;;-0.10;99.90;;;;;;5125338;28;20211;-69
2023/01/26 12:20:28;;;;;;;0.70;0.70;;;-0.30;99.90;;;;;;5127484;28;20544;-70
2023/01/26 12:23:02;;;;;;;0.60;0.60;;;-0.50;99.90;;;;;;5127972;28;20292;-69
2023/01/26 12:25:32;;;;;;;1.80;1.70;;;-0.50;99.90;;;;;;5127760;28;20347;-70
2023/01/26 12:28:16;;;;;;;1.83;1.83;;;-0.30;99.90;;;;;;5125955;28;20209;-71
2023/01/26 12:30:50;;;;;;;1.90;1.05;;;-0.20;99.90;;;;;;5127422;28;20229;-70
2023/01/26 12:33:19;;;;;;;0.30;0.30;;;-0.30;99.90;;;;;;5127722;28;20228;-68
2023/01/26 12:36:03;;;;;;;0.80;0.80;;;-0.30;99.90;;;;;;5126998;28;20303;-69
2023/01/26 12:38:40;;;;;;;1.58;0.98;;;-0.30;99.90;;;;;;5124150;28;20201;-70
2023/01/26 12:41:14;;;;;;;1.15;0.80;;;-0.20;99.90;;;;;;5106735;28;20225;-68
2023/01/26 12:43:56;;;;;;;0.77;0.63;;;-0.30;99.90;;;;;;5122068;28;20197;-70
2023/01/26 12:46:24;;;;;;;3.80;1.13;;;-0.20;99.90;;;;;;5126940;28;20231;-71
2023/01/26 12:48:57;;;;;;;0.50;0.50;;;-0.30;99.90;;;;;;5106077;28;20205;-68
2023/01/26 12:51:30;;;;;;;1.13;0.88;;;-0.30;99.90;;;;;;5110155;28;20233;-70
2023/01/26 12:54:02;;;;;;;1.75;1.23;;;-0.40;99.90;;;;;;5111435;28;20340;-69
2023/01/26 12:56:33;;;;;;;1.20;0.70;;;-0.50;99.90;;;;;;5113073;27;20680;-70
2023/01/26 12:59:05;;;;;;;2.28;2.08;;;-0.40;99.90;;;;;;5130180;27;20201;-70
2023/01/26 13:01:39;;;;;;;0.70;0.70;;;-0.40;99.90;;;;;;5131584;27;20223;-69
2023/01/26 13:04:10;;;;;;;1.83;1.73;;;-0.40;99.90;;;;;;5131238;27;20651;-69
2023/01/26 13:06:37;;;;;;;0.82;0.82;;;-0.30;99.90;;;;;;5131395;27;20384;-70
2023/01/26 13:09:20;;;;;;;0.57;0.57;;;-0.20;99.90;;;;;;5130663;27;20320;-69
2023/01/26 13:11:52;;;;;;;0.70;0.70;;;-0.10;99.90;;;;;;5131056;27;20235;-70
2023/01/26 13:14:38;;;;;;;0.30;0.30;;;-0.20;99.90;;;;;;5110436;28;20230;-68
2023/01/26 13:17:48;;;;;;;1.13;1.00;;;-0.30;99.90;;;;;;5117543;27;20221;-70
2023/01/26 13:20:25;;;;;;;0.98;0.98;;;-0.20;99.90;;;;;;5130153;27;20193;-70
2023/01/26 13:22:52;;;;;;;7.40;1.73;;;-0.10;99.90;;;;;;5131240;27;20231;-69
2023/01/26 13:25:26;;;;;;;0.30;0.30;;;0.00;99.90;;;;;;5131211;27;20207;-67
2023/01/26 13:27:56;;;;;;;1.58;1.30;;;-0.10;99.90;;;;;;5130532;27;20206;-69
2023/01/26 13:30:38;;;;;;;0.90;0.90;;;-0.40;99.90;;;;;;5128355;27;20260;-70
2023/01/26 13:33:12;;;;;;;0.30;0.30;;;-0.20;99.90;;;;;;5130639;27;20197;-68
2023/01/26 13:35:41;;;;;;;3.53;1.23;;;-0.30;99.90;;;;;;5114977;27;20650;-70
2023/01/26 13:38:15;;;;;;;1.02;0.50;;;-0.40;99.90;;;;;;5122750;27;20205;-69
2023/01/26 13:40:45;;;;;;;0.40;0.40;;;-0.20;99.90;;;;;;5130017;27;20233;-70
2023/01/26 13:43:18;;;;;;;0.75;0.75;;;-0.40;99.90;;;;;;5121376;27;20213;-69
2023/01/26 13:45:55;;;;;;;1.63;1.52;;;-0.30;99.90;;;;;;5110139;28;20226;-70
2023/01/26 13:48:33;;;;;;;8.45;1.10;;;-0.20;99.90;;;;;;5109759;28;20189;-70
2023/01/26 13:51:03;;;;;;;2.05;1.92;;;-0.10;99.90;;;;;;5109304;28;20217;-70
2023/01/26 13:53:35;;;;;;;0.30;0.30;;;-0.10;99.90;;;;;;5120164;27;20235;-69
2023/01/26 13:56:04;;;;;;;2.08;1.63;;;-0.30;99.90;;;;;;5130622;27;20573;-69
2023/01/26 13:58:32;;;;;;;0.80;0.80;;;-0.40;99.90;;;;;;5117812;27;20213;-69